sensor_id;sensor_type;location;lat;lon;timestamp;pressure;altitude;pressure_sealevel;temperature;humidity
81913;BME280;71377;50.698;7.164;2023-12-29T00:00:54;100634.81;;;10.07;71.88
81913;BME280;71377;50.698;7.164;2023-12-29T00:03:21;100642.97;;;9.98;71.94
81913;BME280;71377;50.698;7.164;2023-12-29T00:05:48;100641.75;;;10.09;71.93
81913;BME280;71377;50.698;7.164;2023-12-29T00:08:14;100643.38;;;10.12;71.69
81913;BME280;71377;50.698;7.164;2023-12-29T00:10:41;100647.66;;;10.14;71.33
81913;BME280;71377;50.698;7.164;2023-12-29T00:13:07;100630.88;;;10.20;71.54
81913;BME280;71377;50.698;7.164;2023-12-29T00:15:33;100633.69;;;10.14;71.72
81913;BME280;71377;50.698;7.164;2023-12-29T00:18:00;100625.22;;;10.32;70.86
81913;BME280;71377;50.698;7.164;2023-12-29T00:20:27;100622.88;;;10.50;70.02
81913;BME280;71377;50.698;7.164;2023-12-29T00:23:06;100626.66;;;10.41;70.43
81913;BME280;71377;50.698;7.164;2023-12-29T00:25:36;100625.13;;;10.35;70.52
81913;BME280;71377;50.698;7.164;2023-12-29T00:28:04;100621.78;;;10.30;70.78
81913;BME280;71377;50.698;7.164;2023-12-29T00:30:30;100620.16;;;10.28;70.81
81913;BME280;71377;50.698;7.164;2023-12-29T00:33:17;100618.25;;;10.31;70.35
81913;BME280;71377;50.698;7.164;2023-12-29T00:35:43;100621.66;;;10.08;71.35
81913;BME280;71377;50.698;7.164;2023-12-29T00:38:10;100611.47;;;10.26;70.69
81913;BME280;71377;50.698;7.164;2023-12-29T00:40:37;100604.03;;;10.12;71.42
81913;BME280;71377;50.698;7.164;2023-12-29T00:43:03;100603.31;;;10.07;71.42
81913;BME280;71377;50.698;7.164;2023-12-29T00:45:30;100597.84;;;10.13;71.81
81913;BME280;71377;50.698;7.164;2023-12-29T00:47:59;100596.66;;;10.23;71.45
81913;BME280;71377;50.698;7.164;2023-12-29T00:50:26;100599.28;;;10.23;70.80
81913;BME280;71377;50.698;7.164;2023-12-29T00:52:53;100597.91;;;10.11;71.56
81913;BME280;71377;50.698;7.164;2023-12-29T00:55:19;100588.69;;;10.26;70.67
81913;BME280;71377;50.698;7.164;2023-12-29T00:57:46;100585.03;;;10.30;70.98
81913;BME280;71377;50.698;7.164;2023-12-29T01:00:13;100588.59;;;10.29;70.96
81913;BME280;71377;50.698;7.164;2023-12-29T01:02:39;100581.19;;;10.40;70.75
81913;BME280;71377;50.698;7.164;2023-12-29T01:05:06;100576.97;;;10.36;70.33
81913;BME280;71377;50.698;7.164;2023-12-29T01:07:33;100581.06;;;10.18;71.36
81913;BME280;71377;50.698;7.164;2023-12-29T01:09:59;100569.06;;;10.36;70.80
81913;BME280;71377;50.698;7.164;2023-12-29T01:12:27;100571.25;;;10.24;71.38
81913;BME280;71377;50.698;7.164;2023-12-29T01:14:53;100564.47;;;10.43;70.31
81913;BME280;71377;50.698;7.164;2023-12-29T01:17:20;100563.75;;;10.63;69.62
81913;BME280;71377;50.698;7.164;2023-12-29T01:19:48;100547.97;;;10.63;69.23
81913;BME280;71377;50.698;7.164;2023-12-29T01:22:17;100547.75;;;10.45;70.13
81913;BME280;71377;50.698;7.164;2023-12-29T01:24:43;100554.91;;;10.40;70.21
81913;BME280;71377;50.698;7.164;2023-12-29T01:27:12;100557.53;;;10.40;70.20
81913;BME280;71377;50.698;7.164;2023-12-29T01:29:38;100562.13;;;10.35;70.51
81913;BME280;71377;50.698;7.164;2023-12-29T01:32:06;100565.34;;;10.43;70.04
81913;BME280;71377;50.698;7.164;2023-12-29T01:34:34;100560.53;;;10.55;69.62
81913;BME280;71377;50.698;7.164;2023-12-29T01:37:02;100549.91;;;10.58;69.71
81913;BME280;71377;50.698;7.164;2023-12-29T01:39:29;100561.78;;;10.68;69.00
81913;BME280;71377;50.698;7.164;2023-12-29T01:41:56;100564.06;;;10.77;69.07
81913;BME280;71377;50.698;7.164;2023-12-29T01:44:22;100558.03;;;10.75;68.97
81913;BME280;71377;50.698;7.164;2023-12-29T01:46:51;100568.66;;;10.72;69.32
81913;BME280;71377;50.698;7.164;2023-12-29T01:49:21;100560.31;;;10.84;68.97
81913;BME280;71377;50.698;7.164;2023-12-29T01:51:55;100553.34;;;10.83;68.50
81913;BME280;71377;50.698;7.164;2023-12-29T01:54:23;100548.31;;;10.77;69.00
81913;BME280;71377;50.698;7.164;2023-12-29T01:56:51;100551.34;;;10.90;68.48
81913;BME280;71377;50.698;7.164;2023-12-29T01:59:21;100566.41;;;10.85;68.61
81913;BME280;71377;50.698;7.164;2023-12-29T02:01:53;100553.75;;;10.96;68.16
81913;BME280;71377;50.698;7.164;2023-12-29T02:04:23;100561.38;;;11.02;67.87
81913;BME280;71377;50.698;7.164;2023-12-29T02:06:51;100559.44;;;11.07;67.61
81913;BME280;71377;50.698;7.164;2023-12-29T02:09:17;100563.03;;;11.04;67.70
81913;BME280;71377;50.698;7.164;2023-12-29T02:11:46;100558.00;;;10.98;68.18
81913;BME280;71377;50.698;7.164;2023-12-29T02:14:13;100562.41;;;10.98;68.44
81913;BME280;71377;50.698;7.164;2023-12-29T02:19:37;100548.31;;;11.22;67.39
81913;BME280;71377;50.698;7.164;2023-12-29T02:22:06;100536.50;;;11.11;67.82
81913;BME280;71377;50.698;7.164;2023-12-29T02:24:34;100535.41;;;11.16;67.45
81913;BME280;71377;50.698;7.164;2023-12-29T02:29:33;100523.66;;;11.03;68.35
81913;BME280;71377;50.698;7.164;2023-12-29T02:32:00;100533.94;;;11.09;67.91
81913;BME280;71377;50.698;7.164;2023-12-29T02:34:32;100530.81;;;10.99;68.04
81913;BME280;71377;50.698;7.164;2023-12-29T02:37:00;100532.41;;;11.25;66.97
81913;BME280;71377;50.698;7.164;2023-12-29T02:39:27;100536.84;;;11.01;67.71
81913;BME280;71377;50.698;7.164;2023-12-29T02:41:54;100526.13;;;11.08;67.61
81913;BME280;71377;50.698;7.164;2023-12-29T02:44:21;100530.88;;;11.20;67.03
81913;BME280;71377;50.698;7.164;2023-12-29T02:46:47;100531.50;;;11.26;66.86
81913;BME280;71377;50.698;7.164;2023-12-29T02:49:14;100527.88;;;11.29;66.58
81913;BME280;71377;50.698;7.164;2023-12-29T02:51:40;100522.03;;;11.22;66.83
81913;BME280;71377;50.698;7.164;2023-12-29T02:54:07;100515.56;;;11.31;66.69
81913;BME280;71377;50.698;7.164;2023-12-29T02:56:33;100519.13;;;11.50;65.84
81913;BME280;71377;50.698;7.164;2023-12-29T02:59:01;100515.56;;;11.31;66.67
81913;BME280;71377;50.698;7.164;2023-12-29T03:01:27;100516.22;;;11.14;67.67
81913;BME280;71377;50.698;7.164;2023-12-29T03:03:55;100522.09;;;11.21;67.49
81913;BME280;71377;50.698;7.164;2023-12-29T03:06:22;100511.59;;;11.21;67.29
81913;BME280;71377;50.698;7.164;2023-12-29T03:08:49;100513.84;;;11.30;66.96
81913;BME280;71377;50.698;7.164;2023-12-29T03:11:15;100519.50;;;11.41;66.16
81913;BME280;71377;50.698;7.164;2023-12-29T03:13:42;100512.16;;;11.27;67.00
81913;BME280;71377;50.698;7.164;2023-12-29T03:16:09;100507.00;;;11.46;66.45
81913;BME280;71377;50.698;7.164;2023-12-29T03:18:36;100513.88;;;11.50;65.80
81913;BME280;71377;50.698;7.164;2023-12-29T03:21:06;100505.81;;;11.33;66.59
81913;BME280;71377;50.698;7.164;2023-12-29T03:23:34;100506.13;;;11.25;67.26
81913;BME280;71377;50.698;7.164;2023-12-29T03:26:01;100495.91;;;11.18;67.49
81913;BME280;71377;50.698;7.164;2023-12-29T03:28:27;100487.59;;;11.07;67.60
81913;BME280;71377;50.698;7.164;2023-12-29T03:30:54;100485.63;;;11.12;67.81
81913;BME280;71377;50.698;7.164;2023-12-29T03:33:21;100489.66;;;11.20;67.19
81913;BME280;71377;50.698;7.164;2023-12-29T03:35:47;100491.34;;;11.23;67.33
81913;BME280;71377;50.698;7.164;2023-12-29T03:38:14;100491.88;;;11.31;66.87
81913;BME280;71377;50.698;7.164;2023-12-29T03:40:41;100488.03;;;11.18;67.61
81913;BME280;71377;50.698;7.164;2023-12-29T03:43:07;100497.84;;;11.35;66.30
81913;BME280;71377;50.698;7.164;2023-12-29T03:45:34;100498.47;;;11.41;66.05
81913;BME280;71377;50.698;7.164;2023-12-29T03:48:00;100499.88;;;11.28;66.68
81913;BME280;71377;50.698;7.164;2023-12-29T03:50:27;100498.06;;;11.30;66.82
81913;BME280;71377;50.698;7.164;2023-12-29T03:52:53;100512.03;;;11.52;65.82
81913;BME280;71377;50.698;7.164;2023-12-29T03:55:20;100508.63;;;11.28;67.20
81913;BME280;71377;50.698;7.164;2023-12-29T03:57:46;100498.00;;;11.31;67.02
81913;BME280;71377;50.698;7.164;2023-12-29T04:00:14;100491.28;;;11.45;66.88
81913;BME280;71377;50.698;7.164;2023-12-29T04:02:40;100491.50;;;11.40;66.71
81913;BME280;71377;50.698;7.164;2023-12-29T04:05:08;100491.22;;;11.46;66.69
81913;BME280;71377;50.698;7.164;2023-12-29T04:07:36;100487.19;;;11.59;66.02
81913;BME280;71377;50.698;7.164;2023-12-29T04:10:03;100486.47;;;11.56;66.11
81913;BME280;71377;50.698;7.164;2023-12-29T04:12:30;100480.13;;;11.40;66.98
81913;BME280;71377;50.698;7.164;2023-12-29T04:14:57;100493.50;;;11.55;66.52
81913;BME280;71377;50.698;7.164;2023-12-29T04:17:23;100487.28;;;11.36;67.60
81913;BME280;71377;50.698;7.164;2023-12-29T04:19:49;100483.16;;;11.51;66.75
81913;BME280;71377;50.698;7.164;2023-12-29T04:22:16;100484.63;;;11.36;67.45
81913;BME280;71377;50.698;7.164;2023-12-29T04:24:42;100480.66;;;11.48;67.30
81913;BME280;71377;50.698;7.164;2023-12-29T04:27:09;100466.97;;;11.40;67.31
81913;BME280;71377;50.698;7.164;2023-12-29T04:29:36;100466.63;;;11.27;67.78
81913;BME280;71377;50.698;7.164;2023-12-29T04:32:03;100474.41;;;11.30;67.83
81913;BME280;71377;50.698;7.164;2023-12-29T04:34:29;100462.88;;;11.32;68.12
81913;BME280;71377;50.698;7.164;2023-12-29T04:36:56;100459.25;;;11.15;68.65
81913;BME280;71377;50.698;7.164;2023-12-29T04:39:22;100465.25;;;10.96;69.63
81913;BME280;71377;50.698;7.164;2023-12-29T04:41:48;100451.03;;;11.00;69.92
81913;BME280;71377;50.698;7.164;2023-12-29T04:44:15;100453.13;;;11.14;69.29
81913;BME280;71377;50.698;7.164;2023-12-29T04:46:41;100454.47;;;11.02;69.75
81913;BME280;71377;50.698;7.164;2023-12-29T04:49:08;100441.38;;;11.01;69.86
81913;BME280;71377;50.698;7.164;2023-12-29T04:51:35;100441.22;;;11.06;70.00
81913;BME280;71377;50.698;7.164;2023-12-29T04:54:02;100428.91;;;11.06;70.45
81913;BME280;71377;50.698;7.164;2023-12-29T04:56:28;100425.63;;;11.01;70.51
81913;BME280;71377;50.698;7.164;2023-12-29T04:58:55;100440.97;;;10.90;71.18
81913;BME280;71377;50.698;7.164;2023-12-29T05:01:22;100446.84;;;10.96;71.12
81913;BME280;71377;50.698;7.164;2023-12-29T05:03:49;100446.94;;;10.93;71.58
81913;BME280;71377;50.698;7.164;2023-12-29T05:06:16;100468.41;;;11.04;70.63
81913;BME280;71377;50.698;7.164;2023-12-29T05:08:42;100464.38;;;10.96;71.48
81913;BME280;71377;50.698;7.164;2023-12-29T05:11:08;100483.19;;;11.07;70.86
81913;BME280;71377;50.698;7.164;2023-12-29T05:13:35;100487.53;;;11.08;70.72
81913;BME280;71377;50.698;7.164;2023-12-29T05:16:01;100488.50;;;11.27;70.56
81913;BME280;71377;50.698;7.164;2023-12-29T05:18:30;100486.91;;;11.01;71.46
81913;BME280;71377;50.698;7.164;2023-12-29T05:20:56;100488.47;;;11.07;71.26
81913;BME280;71377;50.698;7.164;2023-12-29T05:23:23;100490.94;;;11.10;71.10
81913;BME280;71377;50.698;7.164;2023-12-29T05:25:49;100500.97;;;11.00;71.96
81913;BME280;71377;50.698;7.164;2023-12-29T05:28:16;100501.47;;;11.10;71.29
81913;BME280;71377;50.698;7.164;2023-12-29T05:30:42;100506.31;;;11.21;71.47
81913;BME280;71377;50.698;7.164;2023-12-29T05:33:09;100506.44;;;11.18;71.07
81913;BME280;71377;50.698;7.164;2023-12-29T05:35:35;100508.06;;;11.20;71.31
81913;BME280;71377;50.698;7.164;2023-12-29T05:38:02;100495.97;;;11.16;71.26
81913;BME280;71377;50.698;7.164;2023-12-29T05:40:28;100502.78;;;11.22;71.62
81913;BME280;71377;50.698;7.164;2023-12-29T05:42:55;100505.19;;;11.26;71.15
81913;BME280;71377;50.698;7.164;2023-12-29T05:45:22;100499.81;;;11.08;72.13
81913;BME280;71377;50.698;7.164;2023-12-29T05:47:48;100502.69;;;11.01;72.25
81913;BME280;71377;50.698;7.164;2023-12-29T05:50:15;100501.03;;;10.99;72.70
81913;BME280;71377;50.698;7.164;2023-12-29T05:52:41;100501.47;;;11.10;72.11
81913;BME280;71377;50.698;7.164;2023-12-29T05:55:07;100503.69;;;10.99;72.56
81913;BME280;71377;50.698;7.164;2023-12-29T05:57:34;100505.41;;;11.22;71.63
81913;BME280;71377;50.698;7.164;2023-12-29T06:00:00;100496.34;;;11.07;72.22
81913;BME280;71377;50.698;7.164;2023-12-29T06:02:27;100498.13;;;11.07;72.14
81913;BME280;71377;50.698;7.164;2023-12-29T06:04:53;100498.06;;;11.08;71.96
81913;BME280;71377;50.698;7.164;2023-12-29T06:07:20;100496.16;;;11.12;72.12
81913;BME280;71377;50.698;7.164;2023-12-29T06:09:46;100509.50;;;11.07;72.46
81913;BME280;71377;50.698;7.164;2023-12-29T06:12:13;100512.28;;;11.02;72.58
81913;BME280;71377;50.698;7.164;2023-12-29T06:14:39;100508.06;;;10.98;72.84
81913;BME280;71377;50.698;7.164;2023-12-29T06:17:06;100500.19;;;10.98;73.31
81913;BME280;71377;50.698;7.164;2023-12-29T06:19:32;100496.88;;;10.93;72.92
81913;BME280;71377;50.698;7.164;2023-12-29T06:21:59;100504.66;;;10.96;73.46
81913;BME280;71377;50.698;7.164;2023-12-29T06:24:25;100500.31;;;11.17;72.20
81913;BME280;71377;50.698;7.164;2023-12-29T06:26:52;100496.84;;;11.17;72.63
81913;BME280;71377;50.698;7.164;2023-12-29T06:29:18;100494.56;;;11.08;72.63
81913;BME280;71377;50.698;7.164;2023-12-29T06:31:45;100498.91;;;11.09;72.32
81913;BME280;71377;50.698;7.164;2023-12-29T06:34:11;100502.09;;;11.17;72.22
81913;BME280;71377;50.698;7.164;2023-12-29T06:36:38;100499.22;;;11.23;71.81
81913;BME280;71377;50.698;7.164;2023-12-29T06:39:04;100496.53;;;11.24;71.85
81913;BME280;71377;50.698;7.164;2023-12-29T06:41:31;100486.69;;;11.08;72.31
81913;BME280;71377;50.698;7.164;2023-12-29T06:43:58;100488.47;;;11.07;73.00
81913;BME280;71377;50.698;7.164;2023-12-29T06:46:24;100495.34;;;11.10;72.66
81913;BME280;71377;50.698;7.164;2023-12-29T06:48:50;100491.88;;;11.31;71.41
81913;BME280;71377;50.698;7.164;2023-12-29T06:51:18;100487.00;;;11.22;71.79
81913;BME280;71377;50.698;7.164;2023-12-29T06:53:46;100482.94;;;11.35;71.26
81913;BME280;71377;50.698;7.164;2023-12-29T06:56:14;100475.19;;;11.32;71.17
81913;BME280;71377;50.698;7.164;2023-12-29T06:58:41;100485.63;;;11.33;71.70
81913;BME280;71377;50.698;7.164;2023-12-29T07:01:08;100480.81;;;11.23;71.90
81913;BME280;71377;50.698;7.164;2023-12-29T07:03:35;100477.88;;;11.30;71.56
81913;BME280;71377;50.698;7.164;2023-12-29T07:06:02;100481.97;;;11.16;72.40
81913;BME280;71377;50.698;7.164;2023-12-29T07:08:28;100475.81;;;11.17;72.18
81913;BME280;71377;50.698;7.164;2023-12-29T07:10:55;100476.09;;;11.31;72.20
81913;BME280;71377;50.698;7.164;2023-12-29T07:13:21;100465.91;;;11.44;72.65
81913;BME280;71377;50.698;7.164;2023-12-29T07:15:48;100469.78;;;11.35;72.17
81913;BME280;71377;50.698;7.164;2023-12-29T07:18:15;100470.16;;;11.26;72.61
81913;BME280;71377;50.698;7.164;2023-12-29T07:20:42;100467.66;;;11.23;72.61
81913;BME280;71377;50.698;7.164;2023-12-29T07:23:09;100463.69;;;11.35;72.47
81913;BME280;71377;50.698;7.164;2023-12-29T07:25:35;100468.28;;;11.08;73.55
81913;BME280;71377;50.698;7.164;2023-12-29T07:28:01;100462.78;;;11.14;73.27
81913;BME280;71377;50.698;7.164;2023-12-29T07:30:28;100453.38;;;11.08;73.22
81913;BME280;71377;50.698;7.164;2023-12-29T07:32:55;100450.28;;;11.19;73.59
81913;BME280;71377;50.698;7.164;2023-12-29T07:35:21;100442.00;;;11.08;74.12
81913;BME280;71377;50.698;7.164;2023-12-29T07:37:48;100447.88;;;10.92;74.41
81913;BME280;71377;50.698;7.164;2023-12-29T07:40:14;100451.78;;;11.04;73.58
81913;BME280;71377;50.698;7.164;2023-12-29T07:42:41;100458.50;;;10.89;74.67
81913;BME280;71377;50.698;7.164;2023-12-29T07:45:09;100460.56;;;11.03;74.57
81913;BME280;71377;50.698;7.164;2023-12-29T07:47:36;100461.56;;;11.00;74.59
81913;BME280;71377;50.698;7.164;2023-12-29T07:50:04;100457.53;;;10.92;74.82
81913;BME280;71377;50.698;7.164;2023-12-29T07:52:31;100465.09;;;10.99;74.44
81913;BME280;71377;50.698;7.164;2023-12-29T07:54:58;100456.41;;;11.19;73.24
81913;BME280;71377;50.698;7.164;2023-12-29T07:57:24;100447.00;;;11.14;73.93
81913;BME280;71377;50.698;7.164;2023-12-29T07:59:51;100444.78;;;11.47;71.70
81913;BME280;71377;50.698;7.164;2023-12-29T08:02:17;100448.34;;;11.24;73.11
81913;BME280;71377;50.698;7.164;2023-12-29T08:04:44;100452.81;;;11.22;73.15
81913;BME280;71377;50.698;7.164;2023-12-29T08:07:13;100454.09;;;11.12;74.10
81913;BME280;71377;50.698;7.164;2023-12-29T08:09:39;100458.94;;;11.00;74.47
81913;BME280;71377;50.698;7.164;2023-12-29T08:12:06;100451.78;;;11.46;72.60
81913;BME280;71377;50.698;7.164;2023-12-29T08:14:33;100450.44;;;11.16;73.59
81913;BME280;71377;50.698;7.164;2023-12-29T08:16:59;100451.13;;;11.21;73.00
81913;BME280;71377;50.698;7.164;2023-12-29T08:19:26;100459.34;;;11.33;72.86
81913;BME280;71377;50.698;7.164;2023-12-29T08:21:54;100450.84;;;11.27;72.78
81913;BME280;71377;50.698;7.164;2023-12-29T08:24:20;100451.22;;;11.18;73.57
81913;BME280;71377;50.698;7.164;2023-12-29T08:26:47;100464.56;;;11.55;71.80
81913;BME280;71377;50.698;7.164;2023-12-29T08:29:15;100463.66;;;11.56;71.87
81913;BME280;71377;50.698;7.164;2023-12-29T08:31:42;100463.81;;;11.52;72.06
81913;BME280;71377;50.698;7.164;2023-12-29T08:34:10;100461.78;;;11.38;72.49
81913;BME280;71377;50.698;7.164;2023-12-29T08:36:37;100454.41;;;11.46;72.38
81913;BME280;71377;50.698;7.164;2023-12-29T08:39:06;100465.22;;;11.40;72.46
81913;BME280;71377;50.698;7.164;2023-12-29T08:41:33;100465.22;;;11.40;72.67
81913;BME280;71377;50.698;7.164;2023-12-29T08:43:59;100461.94;;;11.55;71.89
81913;BME280;71377;50.698;7.164;2023-12-29T08:46:26;100469.28;;;11.47;72.44
81913;BME280;71377;50.698;7.164;2023-12-29T08:48:53;100466.53;;;11.50;72.18
81913;BME280;71377;50.698;7.164;2023-12-29T08:51:19;100467.69;;;11.64;71.63
81913;BME280;71377;50.698;7.164;2023-12-29T08:53:46;100463.28;;;11.86;70.93
81913;BME280;71377;50.698;7.164;2023-12-29T08:56:12;100476.09;;;11.73;71.17
81913;BME280;71377;50.698;7.164;2023-12-29T08:58:40;100477.13;;;11.69;71.63
81913;BME280;71377;50.698;7.164;2023-12-29T09:01:07;100483.97;;;11.73;71.55
81913;BME280;71377;50.698;7.164;2023-12-29T09:03:34;100484.63;;;11.58;72.35
81913;BME280;71377;50.698;7.164;2023-12-29T09:06:01;100481.66;;;11.66;71.91
81913;BME280;71377;50.698;7.164;2023-12-29T09:08:29;100495.06;;;11.59;72.43
81913;BME280;71377;50.698;7.164;2023-12-29T09:10:56;100476.81;;;11.77;71.27
81913;BME280;71377;50.698;7.164;2023-12-29T09:13:22;100490.69;;;11.80;71.41
81913;BME280;71377;50.698;7.164;2023-12-29T09:15:51;100480.13;;;12.02;69.89
81913;BME280;71377;50.698;7.164;2023-12-29T09:18:18;100475.63;;;12.04;70.21
81913;BME280;71377;50.698;7.164;2023-12-29T09:20:45;100478.53;;;11.98;70.47
81913;BME280;71377;50.698;7.164;2023-12-29T09:23:12;100463.50;;;12.21;69.35
81913;BME280;71377;50.698;7.164;2023-12-29T09:25:40;100474.00;;;12.02;70.89
81913;BME280;71377;50.698;7.164;2023-12-29T09:28:07;100473.72;;;12.08;70.38
81913;BME280;71377;50.698;7.164;2023-12-29T09:30:33;100484.97;;;12.11;69.91
81913;BME280;71377;50.698;7.164;2023-12-29T09:33:00;100482.47;;;12.08;70.65
81913;BME280;71377;50.698;7.164;2023-12-29T09:35:27;100496.88;;;12.20;69.27
81913;BME280;71377;50.698;7.164;2023-12-29T09:37:54;100490.09;;;12.14;69.65
81913;BME280;71377;50.698;7.164;2023-12-29T09:40:21;100494.09;;;12.23;69.32
81913;BME280;71377;50.698;7.164;2023-12-29T09:42:48;100493.81;;;12.29;68.40
81913;BME280;71377;50.698;7.164;2023-12-29T09:45:23;100494.69;;;12.30;69.13
81913;BME280;71377;50.698;7.164;2023-12-29T09:47:51;100504.19;;;12.13;69.90
81913;BME280;71377;50.698;7.164;2023-12-29T09:50:21;100495.75;;;12.26;68.79
81913;BME280;71377;50.698;7.164;2023-12-29T09:52:48;100484.31;;;12.27;69.22
81913;BME280;71377;50.698;7.164;2023-12-29T09:55:17;100491.38;;;12.25;69.30
81913;BME280;71377;50.698;7.164;2023-12-29T09:57:43;100484.56;;;12.21;69.69
81913;BME280;71377;50.698;7.164;2023-12-29T10:00:11;100499.38;;;12.42;69.03
81913;BME280;71377;50.698;7.164;2023-12-29T10:02:38;100499.59;;;12.37;68.99
81913;BME280;71377;50.698;7.164;2023-12-29T10:05:05;100507.28;;;12.42;68.81
81913;BME280;71377;50.698;7.164;2023-12-29T10:07:36;100499.03;;;12.31;69.47
81913;BME280;71377;50.698;7.164;2023-12-29T10:10:07;100507.53;;;12.56;68.61
81913;BME280;71377;50.698;7.164;2023-12-29T10:12:34;100507.75;;;12.52;68.59
81913;BME280;71377;50.698;7.164;2023-12-29T10:15:09;100504.03;;;12.74;68.06
81913;BME280;71377;50.698;7.164;2023-12-29T10:17:39;100509.81;;;12.45;68.95
81913;BME280;71377;50.698;7.164;2023-12-29T10:23:08;100493.72;;;12.51;68.53
81913;BME280;71377;50.698;7.164;2023-12-29T10:25:39;100502.06;;;12.61;68.17
81913;BME280;71377;50.698;7.164;2023-12-29T10:28:07;100502.50;;;12.70;67.58
81913;BME280;71377;50.698;7.164;2023-12-29T10:30:36;100490.53;;;12.63;67.39
81913;BME280;71377;50.698;7.164;2023-12-29T10:33:06;100498.94;;;12.53;67.71
81913;BME280;71377;50.698;7.164;2023-12-29T10:35:36;100491.19;;;12.68;66.93
81913;BME280;71377;50.698;7.164;2023-12-29T10:38:11;100487.03;;;12.82;66.56
81913;BME280;71377;50.698;7.164;2023-12-29T10:40:39;100493.22;;;12.62;67.49
81913;BME280;71377;50.698;7.164;2023-12-29T10:43:07;100477.53;;;12.59;67.03
81913;BME280;71377;50.698;7.164;2023-12-29T10:45:35;100480.03;;;12.81;66.40
81913;BME280;71377;50.698;7.164;2023-12-29T10:48:05;100475.59;;;13.00;65.92
81913;BME280;71377;50.698;7.164;2023-12-29T10:50:43;100477.03;;;13.07;65.38
81913;BME280;71377;50.698;7.164;2023-12-29T10:53:12;100477.63;;;12.95;65.84
81913;BME280;71377;50.698;7.164;2023-12-29T10:55:39;100477.47;;;12.98;65.81
81913;BME280;71377;50.698;7.164;2023-12-29T10:58:05;100469.19;;;13.06;65.55
81913;BME280;71377;50.698;7.164;2023-12-29T11:00:32;100467.06;;;12.95;66.50
81913;BME280;71377;50.698;7.164;2023-12-29T11:02:59;100476.72;;;13.13;65.63
81913;BME280;71377;50.698;7.164;2023-12-29T11:05:27;100486.25;;;13.35;64.26
81913;BME280;71377;50.698;7.164;2023-12-29T11:07:54;100478.88;;;13.24;65.04
81913;BME280;71377;50.698;7.164;2023-12-29T11:10:21;100477.56;;;13.33;64.91
81913;BME280;71377;50.698;7.164;2023-12-29T11:12:48;100487.78;;;13.21;65.01
81913;BME280;71377;50.698;7.164;2023-12-29T11:15:17;100482.00;;;13.32;64.47
81913;BME280;71377;50.698;7.164;2023-12-29T11:17:44;100471.91;;;13.40;63.71
81913;BME280;71377;50.698;7.164;2023-12-29T11:20:16;100477.28;;;13.20;64.67
81913;BME280;71377;50.698;7.164;2023-12-29T11:22:46;100481.16;;;13.13;64.91
81913;BME280;71377;50.698;7.164;2023-12-29T11:25:12;100470.19;;;13.03;65.21
81913;BME280;71377;50.698;7.164;2023-12-29T11:27:40;100472.03;;;13.20;64.83
81913;BME280;71377;50.698;7.164;2023-12-29T11:30:07;100480.06;;;13.17;64.89
81913;BME280;71377;50.698;7.164;2023-12-29T11:32:45;100489.00;;;13.14;64.92
81913;BME280;71377;50.698;7.164;2023-12-29T11:37:58;100474.16;;;13.31;64.14
81913;BME280;71377;50.698;7.164;2023-12-29T11:40:27;100470.59;;;13.32;64.66
81913;BME280;71377;50.698;7.164;2023-12-29T11:43:00;100463.63;;;13.65;63.27
81913;BME280;71377;50.698;7.164;2023-12-29T11:45:32;100474.66;;;13.56;63.37
81913;BME280;71377;50.698;7.164;2023-12-29T11:48:01;100465.63;;;13.60;63.07
81913;BME280;71377;50.698;7.164;2023-12-29T11:50:33;100462.06;;;13.61;63.17
81913;BME280;71377;50.698;7.164;2023-12-29T11:53:01;100456.63;;;13.64;62.93
81913;BME280;71377;50.698;7.164;2023-12-29T11:55:39;100450.34;;;13.67;62.71
81913;BME280;71377;50.698;7.164;2023-12-29T11:58:26;100450.53;;;13.79;62.52
81913;BME280;71377;50.698;7.164;2023-12-29T12:00:56;100451.78;;;13.55;62.94
81913;BME280;71377;50.698;7.164;2023-12-29T12:03:26;100451.19;;;13.67;62.77
81913;BME280;71377;50.698;7.164;2023-12-29T12:05:55;100446.22;;;13.61;63.29
81913;BME280;71377;50.698;7.164;2023-12-29T12:08:30;100443.34;;;13.66;63.44
81913;BME280;71377;50.698;7.164;2023-12-29T12:11:41;100438.69;;;13.53;62.87
81913;BME280;71377;50.698;7.164;2023-12-29T12:13:46;100432.47;;;13.54;63.14
81913;BME280;71377;50.698;7.164;2023-12-29T12:19:12;100451.28;;;13.48;64.06
81913;BME280;71377;50.698;7.164;2023-12-29T12:21:40;100442.81;;;13.59;63.29
81913;BME280;71377;50.698;7.164;2023-12-29T12:24:07;100439.16;;;13.44;64.29
81913;BME280;71377;50.698;7.164;2023-12-29T12:26:34;100447.41;;;13.55;64.31
81913;BME280;71377;50.698;7.164;2023-12-29T12:29:01;100431.16;;;13.63;63.23
81913;BME280;71377;50.698;7.164;2023-12-29T12:31:28;100436.13;;;13.52;64.03
81913;BME280;71377;50.698;7.164;2023-12-29T12:33:56;100427.53;;;13.66;63.90
81913;BME280;71377;50.698;7.164;2023-12-29T12:36:23;100417.75;;;13.33;65.82
81913;BME280;71377;50.698;7.164;2023-12-29T12:38:55;100425.28;;;13.58;64.65
81913;BME280;71377;50.698;7.164;2023-12-29T12:41:23;100419.75;;;13.45;65.14
81913;BME280;71377;50.698;7.164;2023-12-29T12:43:57;100433.31;;;13.38;65.95
81913;BME280;71377;50.698;7.164;2023-12-29T12:46:27;100428.84;;;13.40;66.00
81913;BME280;71377;50.698;7.164;2023-12-29T12:48:59;100425.09;;;13.61;65.24
81913;BME280;71377;50.698;7.164;2023-12-29T12:51:26;100422.00;;;13.53;65.22
81913;BME280;71377;50.698;7.164;2023-12-29T12:53:53;100419.22;;;13.56;65.40
81913;BME280;71377;50.698;7.164;2023-12-29T12:56:19;100418.19;;;13.76;64.55
81913;BME280;71377;50.698;7.164;2023-12-29T12:58:46;100424.00;;;13.82;63.69
81913;BME280;71377;50.698;7.164;2023-12-29T13:01:14;100429.78;;;13.56;65.38
81913;BME280;71377;50.698;7.164;2023-12-29T13:03:41;100428.81;;;13.92;63.87
81913;BME280;71377;50.698;7.164;2023-12-29T13:06:08;100419.00;;;13.94;63.40